createdAt,value
2024-03-06T00:00:28.152Z,26.88
2024-03-06T00:00:58.222Z,26.89
2024-03-06T00:01:28.359Z,26.89
2024-03-06T00:01:58.596Z,26.89
2024-03-06T00:02:28.530Z,26.91
2024-03-06T00:02:58.593Z,26.89
2024-03-06T00:03:28.659Z,26.89
2024-03-06T00:03:58.723Z,26.88
2024-03-06T00:04:28.820Z,26.89
2024-03-06T00:04:58.868Z,26.88
2024-03-06T00:05:28.860Z,26.89
2024-03-06T00:05:58.932Z,26.88
2024-03-06T00:06:29.022Z,26.89
2024-03-06T00:06:59.090Z,26.89
2024-03-06T00:07:29.169Z,26.87
2024-03-06T00:07:59.313Z,26.88
2024-03-06T00:08:29.309Z,26.89
2024-03-06T00:08:59.250Z,26.89
2024-03-06T00:09:29.327Z,26.89
2024-03-06T00:09:59.388Z,26.88
2024-03-06T00:10:29.499Z,26.87
2024-03-06T00:10:59.609Z,26.88
2024-03-06T00:11:29.665Z,26.88
2024-03-06T00:11:59.706Z,26.89
2024-03-06T00:12:29.687Z,26.87
2024-03-06T00:12:59.766Z,26.88
2024-03-06T00:13:29.867Z,26.88
2024-03-06T00:13:59.911Z,26.87
2024-03-06T00:14:29.999Z,26.89
2024-03-06T00:15:00.078Z,26.89
2024-03-06T00:15:30.170Z,26.85
2024-03-06T00:16:00.260Z,26.88
2024-03-06T00:16:30.369Z,26.89
2024-03-06T00:17:00.462Z,26.88
2024-03-06T00:17:30.474Z,26.87
2024-03-06T00:18:00.596Z,26.89
2024-03-06T00:18:30.534Z,26.88
2024-03-06T00:19:00.617Z,26.88
2024-03-06T00:19:30.729Z,26.88
2024-03-06T00:20:00.898Z,26.87
2024-03-06T00:20:30.868Z,26.88
2024-03-06T00:21:00.965Z,26.88
2024-03-06T00:21:31.026Z,26.88
2024-03-06T00:22:01.104Z,26.87
2024-03-06T00:22:31.193Z,26.89
2024-03-06T00:23:01.284Z,26.88
2024-03-06T00:23:31.371Z,26.87
2024-03-06T00:24:01.430Z,26.88
2024-03-06T00:24:31.501Z,26.88
2024-03-06T00:25:01.601Z,26.88
2024-03-06T00:25:31.714Z,26.85
2024-03-06T00:26:01.812Z,26.87
2024-03-06T00:26:31.896Z,26.88
2024-03-06T00:27:01.949Z,26.87
2024-03-06T00:27:32.021Z,26.85
2024-03-06T00:28:02.104Z,26.88
2024-03-06T00:28:32.184Z,26.88
2024-03-06T00:29:02.293Z,26.87
2024-03-06T00:29:33.330Z,26.87
2024-03-06T00:30:02.407Z,26.87
2024-03-06T00:30:32.388Z,26.84
2024-03-06T00:31:02.464Z,26.85
2024-03-06T00:31:32.597Z,26.84
2024-03-06T00:32:02.686Z,26.85
2024-03-06T00:32:32.841Z,26.88
2024-03-06T00:33:02.916Z,26.88
2024-03-06T00:33:32.861Z,26.88
2024-03-06T00:34:02.955Z,26.84
2024-03-06T00:34:33.049Z,26.87
2024-03-06T00:35:03.079Z,26.85
2024-03-06T00:35:33.029Z,26.85
2024-03-06T00:36:03.099Z,26.88
2024-03-06T00:36:33.174Z,26.89
2024-03-06T00:37:03.264Z,26.88
2024-03-06T00:37:33.367Z,26.87
2024-03-06T00:38:03.536Z,26.85
2024-03-06T00:38:33.502Z,26.85
2024-03-06T00:39:03.601Z,26.85
2024-03-06T00:39:33.688Z,26.84
2024-03-06T00:40:03.759Z,26.87
2024-03-06T00:40:33.846Z,26.85
2024-03-06T00:41:04.021Z,26.85
2024-03-06T00:41:33.986Z,26.84
2024-03-06T00:42:04.059Z,26.85
2024-03-06T00:42:34.136Z,26.85
2024-03-06T00:43:04.210Z,26.88
2024-03-06T00:43:34.318Z,26.85
2024-03-06T00:44:04.438Z,26.87
2024-03-06T00:44:34.380Z,26.87
2024-03-06T00:45:04.403Z,26.85
2024-03-06T00:45:34.451Z,26.88
2024-03-06T00:46:04.487Z,26.85
2024-03-06T00:46:34.535Z,26.87
2024-03-06T00:47:04.623Z,26.87
2024-03-06T00:47:34.682Z,26.85
2024-03-06T00:48:04.875Z,26.85
2024-03-06T00:48:34.814Z,26.85
2024-03-06T00:49:04.844Z,26.84
2024-03-06T00:49:34.958Z,26.87
2024-03-06T00:50:05.012Z,26.85
2024-03-06T00:50:35.047Z,26.85
2024-03-06T00:51:05.080Z,26.87
2024-03-06T00:51:41.858Z,26.84
2024-03-06T00:52:05.190Z,26.87
2024-03-06T00:52:35.269Z,26.82
2024-03-06T00:53:05.325Z,26.84
2024-03-06T00:53:35.369Z,26.84
2024-03-06T00:54:05.468Z,26.84
2024-03-06T00:54:35.526Z,26.84
2024-03-06T00:55:05.601Z,26.84
2024-03-06T00:55:35.725Z,26.82
2024-03-06T00:56:05.720Z,26.82
2024-03-06T00:56:35.699Z,26.84
2024-03-06T00:57:05.847Z,26.84
2024-03-06T00:57:35.801Z,26.84
2024-03-06T00:58:05.876Z,26.82
2024-03-06T00:58:36.037Z,26.84
2024-03-06T00:59:06.083Z,26.84
2024-03-06T00:59:36.041Z,26.82
2024-03-06T01:00:06.081Z,26.85
2024-03-06T01:00:36.219Z,26.81
2024-03-06T01:01:06.172Z,26.84
2024-03-06T01:01:36.304Z,26.84
2024-03-06T01:02:06.404Z,26.82
2024-03-06T01:02:36.290Z,26.84
2024-03-06T01:03:06.378Z,26.82
2024-03-06T01:03:36.477Z,26.82
2024-03-06T01:04:06.566Z,26.82
2024-03-06T01:04:36.636Z,26.85
2024-03-06T01:05:06.757Z,26.85
2024-03-06T01:05:36.700Z,26.81
2024-03-06T01:06:06.764Z,26.82
2024-03-06T01:06:36.843Z,26.87
2024-03-06T01:07:06.931Z,26.82
2024-03-06T01:07:37.032Z,26.82
2024-03-06T01:08:07.121Z,26.84
2024-03-06T01:08:37.189Z,26.82
2024-03-06T01:09:07.270Z,26.81
2024-03-06T01:09:37.342Z,26.82
2024-03-06T01:10:07.432Z,26.85
2024-03-06T01:10:37.581Z,26.82
2024-03-06T01:11:07.693Z,26.79
2024-03-06T01:11:37.599Z,26.81
2024-03-06T01:12:07.669Z,26.82
2024-03-06T01:12:37.750Z,26.75
2024-03-06T01:13:07.835Z,26.81
2024-03-06T01:13:37.937Z,26.81
2024-03-06T01:14:07.914Z,26.82
2024-03-06T01:14:40.603Z,26.81
2024-03-06T01:15:08.037Z,26.81
2024-03-06T01:15:38.112Z,26.81
2024-03-06T01:16:08.185Z,26.79
2024-03-06T01:16:38.285Z,26.81
2024-03-06T01:17:08.452Z,26.82
2024-03-06T01:17:38.417Z,26.82
2024-03-06T01:18:08.504Z,26.81
2024-03-06T01:18:38.689Z,26.79
2024-03-06T01:19:08.622Z,26.79
2024-03-06T01:19:38.852Z,26.81
2024-03-06T01:20:08.761Z,26.82
2024-03-06T01:20:38.813Z,26.78
2024-03-06T01:21:08.750Z,26.78
2024-03-06T01:21:38.818Z,26.78
2024-03-06T01:22:08.892Z,26.82
2024-03-06T01:22:39.027Z,26.79
2024-03-06T01:23:09.049Z,26.78
2024-03-06T01:23:38.985Z,26.79
2024-03-06T01:24:09.076Z,26.82
2024-03-06T01:24:39.149Z,26.82
2024-03-06T01:25:09.221Z,26.81
2024-03-06T01:25:39.362Z,26.81
2024-03-06T01:26:09.417Z,26.81
2024-03-06T01:26:39.406Z,26.79
2024-03-06T01:27:09.512Z,26.79
2024-03-06T01:27:39.574Z,26.78
2024-03-06T01:28:09.653Z,26.78
2024-03-06T01:28:39.749Z,26.78
2024-03-06T01:29:09.977Z,26.78
2024-03-06T01:29:39.843Z,26.78
2024-03-06T01:30:09.913Z,26.79
2024-03-06T01:30:40.003Z,26.81
2024-03-06T01:31:10.079Z,26.79
2024-03-06T01:31:40.187Z,26.81
2024-03-06T01:32:10.294Z,26.78
2024-03-06T01:32:40.310Z,26.79
2024-03-06T01:33:10.431Z,26.78
2024-03-06T01:33:40.394Z,26.79
2024-03-06T01:34:10.511Z,26.79
2024-03-06T01:34:40.670Z,26.77
2024-03-06T01:35:10.816Z,26.81
2024-03-06T01:35:40.637Z,26.81
2024-03-06T01:36:10.711Z,26.79
2024-03-06T01:36:40.803Z,26.78
2024-03-06T01:37:10.858Z,26.78
2024-03-06T01:37:40.938Z,26.78
2024-03-06T01:38:11.063Z,26.79
2024-03-06T01:38:41.027Z,26.78
2024-03-06T01:39:11.091Z,26.78
2024-03-06T01:39:41.179Z,26.79
2024-03-06T01:40:11.269Z,26.79
2024-03-06T01:40:41.367Z,26.77
2024-03-06T01:41:11.523Z,26.79
2024-03-06T01:41:41.465Z,26.77
2024-03-06T01:42:11.532Z,26.77
2024-03-06T01:42:41.606Z,26.78
2024-03-06T01:43:11.687Z,26.78
2024-03-06T01:43:41.754Z,26.78
2024-03-06T01:44:11.830Z,26.77
2024-03-06T01:44:41.801Z,26.77
2024-03-06T01:45:11.835Z,26.77
2024-03-06T01:45:41.867Z,26.77
2024-03-06T01:46:11.901Z,26.78
2024-03-06T01:46:41.990Z,26.77
2024-03-06T01:47:12.193Z,26.77
2024-03-06T01:47:42.089Z,26.77
2024-03-06T01:48:12.205Z,26.78
2024-03-06T01:48:42.233Z,26.77
2024-03-06T01:49:12.281Z,26.77
2024-03-06T01:49:45.316Z,26.77
2024-03-06T01:50:12.490Z,26.77
2024-03-06T01:50:42.439Z,26.77
2024-03-06T01:51:12.466Z,26.75
2024-03-06T01:51:42.508Z,26.75
2024-03-06T01:52:12.537Z,26.77
2024-03-06T01:52:42.595Z,26.77
2024-03-06T01:53:12.637Z,26.77
2024-03-06T01:53:42.713Z,26.77
2024-03-06T01:54:12.821Z,26.77
2024-03-06T01:54:42.926Z,26.77
2024-03-06T01:55:13.001Z,26.75
2024-03-06T01:55:43.088Z,26.74
2024-03-06T01:56:13.386Z,26.75
2024-03-06T01:56:43.265Z,26.75
2024-03-06T01:57:13.333Z,26.75
2024-03-06T01:57:43.411Z,26.74
2024-03-06T01:58:13.513Z,26.77
2024-03-06T01:58:43.600Z,26.72
2024-03-06T01:59:21.457Z,26.75
2024-03-06T01:59:43.778Z,26.72
2024-03-06T02:00:13.839Z,26.71
2024-03-06T02:00:43.908Z,26.72
2024-03-06T02:01:13.987Z,26.72
2024-03-06T02:01:44.114Z,26.74
2024-03-06T02:02:14.119Z,26.74
2024-03-06T02:02:44.193Z,26.74
2024-03-06T02:03:14.346Z,26.71
2024-03-06T02:03:44.296Z,26.74
2024-03-06T02:04:14.382Z,26.75
2024-03-06T02:04:44.505Z,26.74
2024-03-06T02:05:14.649Z,26.74
2024-03-06T02:05:44.620Z,26.71
2024-03-06T02:06:14.700Z,26.75
2024-03-06T02:06:44.776Z,26.71
2024-03-06T02:07:14.833Z,26.72
2024-03-06T02:07:44.943Z,26.74
2024-03-06T02:08:15.093Z,26.72
2024-03-06T02:08:45.070Z,26.74
2024-03-06T02:09:15.132Z,26.74
2024-03-06T02:09:45.206Z,26.72
2024-03-06T02:10:15.278Z,26.74
2024-03-06T02:10:45.358Z,26.71
2024-03-06T02:11:15.524Z,26.72
2024-03-06T02:11:45.484Z,26.72
2024-03-06T02:12:15.593Z,26.72
2024-03-06T02:12:45.663Z,26.72
2024-03-06T02:13:15.732Z,26.74
2024-03-06T02:13:45.863Z,26.74
2024-03-06T02:14:15.857Z,26.71
2024-03-06T02:14:45.938Z,26.74
2024-03-06T02:15:16.006Z,26.72
2024-03-06T02:15:46.109Z,26.74
2024-03-06T02:16:16.196Z,26.72
2024-03-06T02:16:46.264Z,26.74
2024-03-06T02:17:16.428Z,26.74
2024-03-06T02:17:46.441Z,26.72
2024-03-06T02:18:16.434Z,26.72
2024-03-06T02:18:46.438Z,26.72
2024-03-06T02:19:16.592Z,26.72
2024-03-06T02:19:46.590Z,26.74
2024-03-06T02:20:17.063Z,26.74
2024-03-06T02:20:46.697Z,26.72
2024-03-06T02:21:46.830Z,26.71
2024-03-06T02:22:16.899Z,26.72
2024-03-06T02:22:47.005Z,26.72
2024-03-06T02:23:17.111Z,26.72
2024-03-06T02:23:47.131Z,26.71
2024-03-06T02:24:17.200Z,26.71
2024-03-06T02:24:47.363Z,26.71
2024-03-06T02:25:17.323Z,26.71
2024-03-06T02:25:47.410Z,26.71
2024-03-06T02:26:17.553Z,26.71
2024-03-06T02:26:47.516Z,26.68
2024-03-06T02:27:17.586Z,26.71
2024-03-06T02:27:47.670Z,26.72
2024-03-06T02:28:17.729Z,26.71
2024-03-06T02:28:47.864Z,26.70
2024-03-06T02:29:17.861Z,26.70
2024-03-06T02:29:47.814Z,26.70
2024-03-06T02:30:17.896Z,26.71
2024-03-06T02:30:47.985Z,26.70
2024-03-06T02:31:18.072Z,26.68
2024-03-06T02:31:48.170Z,26.68
2024-03-06T02:32:18.251Z,26.68
2024-03-06T02:32:48.424Z,26.70
2024-03-06T02:33:18.463Z,26.70
2024-03-06T02:33:48.403Z,26.68
2024-03-06T02:34:18.476Z,26.67
2024-03-06T02:34:48.581Z,26.67
2024-03-06T02:35:18.661Z,26.68
2024-03-06T02:35:48.793Z,26.68
2024-03-06T02:36:18.937Z,26.70
2024-03-06T02:36:48.973Z,26.68
2024-03-06T02:37:18.976Z,26.65
2024-03-06T02:37:48.991Z,26.67
2024-03-06T02:38:19.057Z,26.67
2024-03-06T02:38:49.046Z,26.67
2024-03-06T02:39:19.100Z,26.67
2024-03-06T02:39:49.194Z,26.68
2024-03-06T02:40:19.292Z,26.68
2024-03-06T02:40:49.593Z,26.67
2024-03-06T02:41:19.531Z,26.68
2024-03-06T02:41:49.481Z,26.68
2024-03-06T02:42:19.554Z,26.67
2024-03-06T02:42:49.632Z,26.68
2024-03-06T02:43:19.705Z,26.65
2024-03-06T02:43:49.769Z,26.67
2024-03-06T02:44:19.889Z,26.65
2024-03-06T02:44:49.851Z,26.67
2024-03-06T02:45:19.900Z,26.65
2024-03-06T02:45:49.934Z,26.65
2024-03-06T02:46:19.980Z,26.67
2024-03-06T02:46:50.049Z,26.67
2024-03-06T02:47:20.142Z,26.67
2024-03-06T02:47:50.220Z,26.68
2024-03-06T02:48:20.285Z,26.65
2024-03-06T02:48:50.320Z,26.65
2024-03-06T02:49:20.397Z,26.68
2024-03-06T02:49:50.441Z,26.65
2024-03-06T02:50:20.520Z,26.67
2024-03-06T02:50:50.568Z,26.67
2024-03-06T02:51:20.593Z,26.67
2024-03-06T02:51:50.708Z,26.67
2024-03-06T02:52:20.646Z,26.65
2024-03-06T02:52:50.688Z,26.65
2024-03-06T02:53:20.771Z,26.65
2024-03-06T02:53:50.725Z,26.65
2024-03-06T02:54:20.810Z,26.65
2024-03-06T02:54:50.870Z,26.64
2024-03-06T02:55:20.945Z,26.67
2024-03-06T02:55:51.045Z,26.67
2024-03-06T02:56:21.153Z,26.67
2024-03-06T02:56:51.224Z,26.67
2024-03-06T02:57:21.305Z,26.67
2024-03-06T02:57:51.379Z,26.65
2024-03-06T02:58:21.452Z,26.67
2024-03-06T02:58:51.556Z,26.65
2024-03-06T02:59:21.687Z,26.65
2024-03-06T02:59:51.626Z,26.67
2024-03-06T03:00:21.693Z,26.64
2024-03-06T03:00:51.802Z,26.67
2024-03-06T03:01:21.891Z,26.65
2024-03-06T03:01:51.997Z,26.67
2024-03-06T03:02:22.036Z,26.67
2024-03-06T03:02:52.108Z,26.65
2024-03-06T03:03:22.190Z,26.67
2024-03-06T03:03:52.264Z,26.65
2024-03-06T03:04:22.341Z,26.65
2024-03-06T03:04:52.459Z,26.67
2024-03-06T03:05:22.563Z,26.65
2024-03-06T03:05:52.525Z,26.64
2024-03-06T03:06:22.618Z,26.65
2024-03-06T03:06:52.676Z,26.65
2024-03-06T03:07:22.757Z,26.67
2024-03-06T03:07:52.863Z,26.67
2024-03-06T03:08:23.035Z,26.65
2024-03-06T03:08:52.977Z,26.67
2024-03-06T03:09:23.039Z,26.67
2024-03-06T03:09:53.112Z,26.67
2024-03-06T03:10:23.191Z,26.65
2024-03-06T03:10:53.301Z,26.67
2024-03-06T03:11:23.393Z,26.67
2024-03-06T03:11:53.453Z,26.65
2024-03-06T03:12:23.544Z,26.64
2024-03-06T03:12:53.613Z,26.65
2024-03-06T03:13:23.694Z,26.64
2024-03-06T03:13:53.842Z,26.65
2024-03-06T03:14:23.774Z,26.62
2024-03-06T03:14:53.853Z,26.65
2024-03-06T03:15:23.931Z,26.64
2024-03-06T03:15:54.012Z,26.67
2024-03-06T03:16:24.077Z,26.67
2024-03-06T03:16:54.189Z,26.65
2024-03-06T03:17:24.332Z,26.64
2024-03-06T03:17:54.411Z,26.61
2024-03-06T03:18:24.370Z,26.65
2024-03-06T03:18:54.453Z,26.64
2024-03-06T03:19:24.541Z,26.64
2024-03-06T03:19:54.620Z,26.64
2024-03-06T03:20:24.706Z,26.65
2024-03-06T03:20:54.808Z,26.64
2024-03-06T03:21:24.870Z,26.64
2024-03-06T03:21:55.024Z,26.65
2024-03-06T03:22:24.982Z,26.64
2024-03-06T03:22:55.054Z,26.64
2024-03-06T03:23:25.140Z,26.62
2024-03-06T03:23:55.234Z,26.62
2024-03-06T03:24:25.292Z,26.65
2024-03-06T03:24:55.359Z,26.65
2024-03-06T03:25:25.437Z,26.64
2024-03-06T03:25:55.549Z,26.64
2024-03-06T03:26:25.591Z,26.64
2024-03-06T03:26:55.603Z,26.64
2024-03-06T03:27:25.662Z,26.61
2024-03-06T03:27:55.745Z,26.67
2024-03-06T03:28:25.879Z,26.67
2024-03-06T03:28:55.913Z,26.64
2024-03-06T03:29:25.862Z,26.64
2024-03-06T03:29:55.926Z,26.65
2024-03-06T03:30:26.011Z,26.64
2024-03-06T03:30:56.090Z,26.64
2024-03-06T03:31:26.196Z,26.62
2024-03-06T03:31:56.369Z,26.64
2024-03-06T03:32:26.403Z,26.64
2024-03-06T03:32:56.394Z,26.64
2024-03-06T03:33:26.489Z,26.64
2024-03-06T03:33:56.558Z,26.64
2024-03-06T03:34:26.633Z,26.64
2024-03-06T03:34:56.740Z,26.64
2024-03-06T03:35:26.824Z,26.64
2024-03-06T03:35:56.903Z,26.62
2024-03-06T03:36:26.997Z,26.64
2024-03-06T03:36:57.081Z,26.64
2024-03-06T03:37:27.132Z,26.61
2024-03-06T03:37:57.253Z,26.64
2024-03-06T03:38:27.307Z,26.64
2024-03-06T03:38:57.404Z,26.64
2024-03-06T03:39:27.453Z,26.62
2024-03-06T03:39:57.522Z,26.64
2024-03-06T03:40:27.573Z,26.65
2024-03-06T03:40:57.661Z,26.64
2024-03-06T03:41:27.680Z,26.61
2024-03-06T03:41:57.808Z,26.61
2024-03-06T03:42:27.872Z,26.62
2024-03-06T03:42:57.998Z,26.62
2024-03-06T03:43:28.032Z,26.62
2024-03-06T03:43:58.121Z,26.62
2024-03-06T03:44:28.138Z,26.61
2024-03-06T03:44:58.182Z,26.61
2024-03-06T03:45:28.249Z,26.61
2024-03-06T03:45:58.265Z,26.61
2024-03-06T03:46:28.298Z,26.61
2024-03-06T03:46:58.461Z,26.62
2024-03-06T03:47:28.429Z,26.62
2024-03-06T03:47:58.485Z,26.62
2024-03-06T03:48:28.525Z,26.61
2024-03-06T03:48:58.560Z,26.61
2024-03-06T03:49:28.604Z,26.62
2024-03-06T03:50:03.766Z,26.61
2024-03-06T03:50:28.730Z,26.62
2024-03-06T03:50:58.781Z,26.64
2024-03-06T03:51:28.815Z,26.62
2024-03-06T03:51:58.847Z,26.64
2024-03-06T03:52:28.999Z,26.64
2024-03-06T03:52:59.005Z,26.65
2024-03-06T03:53:59.018Z,26.67
2024-03-06T03:54:29.395Z,26.68
2024-03-06T03:54:59.204Z,26.71
2024-03-06T03:55:59.374Z,26.70
2024-03-06T03:56:29.441Z,26.70
2024-03-06T03:56:59.581Z,26.72
2024-03-06T03:57:29.531Z,26.72
2024-03-06T03:57:59.595Z,26.72
2024-03-06T03:58:29.706Z,26.72
2024-03-06T03:58:59.889Z,26.74
2024-03-06T03:59:29.902Z,26.74
2024-03-06T03:59:59.891Z,26.75
2024-03-06T04:00:59.948Z,26.77
2024-03-06T04:01:30.011Z,26.79
2024-03-06T04:02:00.171Z,26.81
2024-03-06T04:02:30.111Z,26.79
2024-03-06T04:03:00.244Z,26.79
2024-03-06T04:03:30.203Z,26.81
2024-03-06T04:04:00.283Z,26.81
2024-03-06T04:04:30.389Z,26.82
2024-03-06T04:05:00.528Z,26.82
2024-03-06T04:05:30.487Z,26.84
2024-03-06T04:06:00.508Z,26.85
2024-03-06T04:06:30.571Z,26.84
2024-03-06T04:07:00.636Z,26.84
2024-03-06T04:07:30.701Z,26.82
2024-03-06T04:08:00.835Z,26.84
2024-03-06T04:08:30.911Z,26.82
2024-03-06T04:09:00.977Z,26.84
2024-03-06T04:09:31.058Z,26.85
2024-03-06T04:10:01.136Z,26.85
2024-03-06T04:10:31.217Z,26.84
2024-03-06T04:11:01.346Z,26.88
2024-03-06T04:11:31.496Z,26.88
2024-03-06T04:12:01.370Z,26.87
2024-03-06T04:12:31.435Z,26.88
2024-03-06T04:13:01.527Z,26.85
2024-03-06T04:13:31.601Z,26.87
2024-03-06T04:14:01.729Z,26.89
2024-03-06T04:14:31.788Z,26.87
2024-03-06T04:15:01.850Z,26.88
2024-03-06T04:15:31.924Z,26.91
2024-03-06T04:16:01.995Z,26.91
2024-03-06T04:16:34.155Z,26.91
2024-03-06T04:17:02.153Z,26.89
2024-03-06T04:17:32.234Z,26.91
2024-03-06T04:18:02.316Z,26.89
2024-03-06T04:18:32.376Z,26.91
2024-03-06T04:19:02.455Z,26.91
2024-03-06T04:19:32.596Z,26.92
2024-03-06T04:20:02.642Z,26.92
2024-03-06T04:20:32.623Z,26.94
2024-03-06T04:21:02.689Z,26.94
2024-03-06T04:21:32.779Z,26.94
2024-03-06T04:22:02.834Z,26.92
2024-03-06T04:22:32.948Z,26.92
2024-03-06T04:23:03.074Z,26.94
2024-03-06T04:23:33.139Z,26.96
2024-03-06T04:24:03.247Z,26.94
2024-03-06T04:24:33.312Z,26.95
2024-03-06T04:25:03.390Z,26.96
2024-03-06T04:25:33.503Z,26.94
2024-03-06T04:26:03.597Z,26.95
2024-03-06T04:26:33.558Z,26.96
2024-03-06T04:27:03.643Z,26.96
2024-03-06T04:27:33.743Z,26.96
2024-03-06T04:28:03.811Z,26.94
2024-03-06T04:28:33.914Z,26.95
2024-03-06T04:29:04.057Z,26.95
2024-03-06T04:29:34.040Z,26.95
2024-03-06T04:30:04.112Z,26.95
2024-03-06T04:30:34.194Z,26.94
2024-03-06T04:31:04.269Z,26.96
2024-03-06T04:31:34.372Z,26.94
2024-03-06T04:32:04.500Z,26.96
2024-03-06T04:32:34.470Z,26.95
2024-03-06T04:33:04.674Z,26.96
2024-03-06T04:33:34.641Z,26.95
2024-03-06T04:34:04.625Z,26.98
2024-03-06T04:34:34.747Z,26.98
2024-03-06T04:35:04.765Z,26.95
2024-03-06T04:36:04.738Z,26.95
2024-03-06T04:36:34.823Z,26.94
2024-03-06T04:37:04.902Z,26.95
2024-03-06T04:37:35.030Z,26.94
2024-03-06T04:38:05.212Z,26.92
2024-03-06T04:38:35.063Z,26.91
2024-03-06T04:39:05.114Z,26.85
2024-03-06T04:39:35.207Z,26.92
2024-03-06T04:40:05.276Z,26.94
2024-03-06T04:40:35.395Z,26.94
2024-03-06T04:41:05.494Z,26.92
2024-03-06T04:41:35.582Z,26.92
2024-03-06T04:42:05.651Z,26.94
2024-03-06T04:42:35.720Z,26.96
2024-03-06T04:43:05.788Z,26.96
2024-03-06T04:43:35.859Z,26.94
2024-03-06T04:44:05.972Z,26.96
2024-03-06T04:44:35.998Z,26.95
2024-03-06T04:45:06.039Z,26.96
2024-03-06T04:45:36.087Z,26.96
2024-03-06T04:46:06.118Z,26.91
2024-03-06T04:46:36.209Z,26.95
2024-03-06T04:47:06.240Z,26.99
2024-03-06T04:47:36.324Z,27.02
2024-03-06T04:48:06.421Z,27.05
2024-03-06T04:48:36.345Z,27.05
2024-03-06T04:49:06.390Z,27.06
2024-03-06T04:49:36.543Z,27.07
2024-03-06T04:50:06.608Z,27.06
2024-03-06T04:50:36.662Z,27.07
2024-03-06T04:51:06.684Z,27.09
2024-03-06T04:51:36.718Z,27.12
2024-03-06T04:52:06.748Z,27.09
2024-03-06T04:52:36.834Z,27.12
2024-03-06T04:53:06.944Z,27.10
2024-03-06T04:53:37.016Z,27.13
2024-03-06T04:54:07.065Z,27.15
2024-03-06T04:54:37.168Z,27.13
2024-03-06T04:55:07.239Z,27.16
2024-03-06T04:55:37.359Z,27.13
2024-03-06T04:56:07.368Z,27.13
2024-03-06T04:57:07.356Z,27.13
2024-03-06T04:57:37.444Z,27.16
2024-03-06T04:58:07.565Z,27.17
2024-03-06T04:58:37.569Z,27.17
2024-03-06T04:59:07.668Z,27.17
2024-03-06T04:59:37.750Z,27.17
2024-03-06T05:00:07.881Z,27.20
2024-03-06T05:00:37.937Z,27.19
2024-03-06T05:01:08.080Z,27.20
2024-03-06T05:01:38.035Z,27.17
2024-03-06T05:02:08.221Z,27.20
2024-03-06T05:58:26.867Z,26.91
2024-03-06T05:58:56.936Z,26.91
2024-03-06T05:59:27.086Z,26.95
2024-03-06T05:59:57.169Z,26.98
2024-03-06T06:00:27.181Z,26.99
2024-03-06T06:00:57.376Z,26.98
2024-03-06T06:01:27.382Z,27.01
2024-03-06T06:01:57.353Z,27.07
2024-03-06T06:02:27.440Z,27.07
2024-03-06T06:02:57.529Z,27.09
2024-03-06T06:03:27.601Z,27.12
2024-03-06T06:03:57.689Z,27.15
2024-03-06T06:04:27.794Z,27.15
2024-03-06T06:05:11.610Z,27.16
2024-03-06T06:05:28.030Z,27.16
2024-03-06T06:05:58.000Z,27.19
2024-03-06T06:06:28.070Z,27.16
2024-03-06T06:06:58.150Z,27.20
2024-03-06T06:07:28.254Z,27.22
2024-03-06T06:07:58.382Z,27.22
2024-03-06T06:08:28.473Z,27.22
2024-03-06T06:08:58.501Z,27.22
2024-03-06T06:09:29.607Z,27.23
2024-03-06T06:09:58.771Z,27.26
2024-03-06T06:10:58.839Z,27.26
2024-03-06T06:11:28.959Z,27.26
2024-03-06T06:11:58.933Z,27.26
2024-03-06T06:12:28.928Z,27.24
2024-03-06T06:12:58.907Z,27.22
2024-03-06T06:13:29.047Z,27.26
2024-03-06T06:13:59.104Z,27.24
2024-03-06T06:14:29.134Z,27.26
2024-03-06T06:14:59.149Z,27.26
2024-03-06T06:15:29.170Z,27.24
2024-03-06T06:15:59.143Z,27.27
2024-03-06T06:16:29.277Z,27.27
2024-03-06T06:16:59.319Z,27.30
2024-03-06T06:17:29.360Z,27.29
2024-03-06T06:17:59.433Z,27.32
2024-03-06T06:18:29.478Z,27.32
2024-03-06T06:18:59.452Z,27.33
2024-03-06T06:19:29.604Z,27.32
2024-03-06T06:19:59.603Z,27.33
2024-03-06T06:20:29.742Z,27.36
2024-03-06T06:20:59.727Z,27.33
2024-03-06T06:21:29.721Z,27.37
2024-03-06T06:22:29.805Z,27.34
2024-03-06T06:22:59.879Z,27.33
2024-03-06T06:23:29.906Z,27.34
2024-03-06T06:23:59.914Z,27.33
2024-03-06T06:24:29.946Z,27.32
2024-03-06T06:24:59.971Z,27.33
2024-03-06T06:25:29.947Z,27.34
2024-03-06T06:25:59.990Z,27.34
2024-03-06T06:26:30.049Z,27.33
2024-03-06T06:27:00.047Z,27.33
2024-03-06T06:27:30.156Z,27.33
2024-03-06T06:28:00.273Z,27.32
2024-03-06T06:28:30.419Z,27.33
2024-03-06T06:29:00.439Z,27.29
2024-03-06T06:29:30.527Z,27.30
2024-03-06T06:30:03.000Z,27.29
2024-03-06T06:30:30.581Z,27.29
2024-03-06T06:31:00.572Z,27.30
2024-03-06T06:32:00.732Z,27.32
2024-03-06T06:32:30.883Z,27.30
2024-03-06T06:33:00.810Z,27.34
2024-03-06T06:33:30.858Z,27.32
2024-03-06T06:34:00.867Z,27.34
2024-03-06T06:34:30.980Z,27.39
2024-03-06T06:35:01.194Z,27.36
2024-03-06T06:35:31.245Z,27.34
2024-03-06T06:36:01.265Z,27.34
2024-03-06T06:36:31.255Z,27.37
2024-03-06T06:37:31.338Z,27.36
2024-03-06T06:38:01.479Z,27.37
2024-03-06T06:38:31.504Z,27.39
2024-03-06T06:39:04.884Z,27.37
2024-03-06T06:39:31.673Z,27.37
2024-03-06T06:40:01.792Z,27.36
2024-03-06T06:40:31.914Z,27.36
2024-03-06T06:41:02.061Z,27.36
2024-03-06T06:41:32.123Z,27.32
2024-03-06T06:42:02.122Z,27.34
2024-03-06T06:42:32.127Z,27.33
2024-03-06T06:43:02.150Z,27.34
2024-03-06T06:43:32.138Z,27.34
2024-03-06T06:44:02.290Z,27.32
2024-03-06T06:44:32.422Z,27.34
2024-03-06T06:45:02.369Z,27.34
2024-03-06T06:45:32.345Z,27.34
2024-03-06T06:46:05.859Z,27.32
2024-03-06T06:46:32.468Z,27.34
2024-03-06T06:47:02.483Z,27.32
2024-03-06T06:47:32.619Z,27.32
2024-03-06T06:48:02.684Z,27.30
2024-03-06T06:48:32.689Z,27.32
2024-03-06T06:49:02.697Z,27.32
2024-03-06T06:49:32.677Z,27.32
2024-03-06T06:50:02.820Z,27.32
2024-03-06T06:50:32.909Z,27.32
2024-03-06T06:51:02.917Z,27.30
2024-03-06T06:51:33.040Z,27.27
2024-03-06T06:52:03.046Z,27.33
2024-03-06T06:52:33.045Z,27.27
2024-03-06T06:53:03.178Z,27.32
2024-03-06T06:53:33.217Z,27.30
2024-03-06T06:54:03.268Z,27.32
2024-03-06T06:54:33.263Z,27.32
2024-03-06T06:55:03.301Z,27.32
2024-03-06T06:55:33.284Z,27.33
2024-03-06T06:56:03.297Z,27.33
2024-03-06T06:56:33.323Z,27.33
2024-03-06T06:57:03.348Z,27.37
2024-03-06T06:57:33.358Z,27.36
2024-03-06T06:58:03.358Z,27.34
2024-03-06T06:58:33.434Z,27.34
2024-03-06T06:59:03.556Z,27.34
2024-03-06T06:59:33.566Z,27.34
2024-03-06T07:00:03.632Z,27.37
2024-03-06T07:00:33.698Z,27.37
2024-03-06T07:01:03.807Z,27.37
2024-03-06T07:01:33.966Z,27.37
2024-03-06T07:02:03.948Z,27.36
2024-03-06T07:03:03.988Z,27.37
2024-03-06T07:03:34.060Z,27.37
2024-03-06T07:04:04.163Z,27.34
2024-03-06T07:04:34.227Z,27.37
2024-03-06T07:05:04.363Z,27.34
2024-03-06T07:05:34.456Z,27.37
2024-03-06T07:06:04.552Z,27.36
2024-03-06T07:06:34.666Z,27.39
2024-03-06T07:07:04.743Z,27.37
2024-03-06T07:07:34.828Z,27.41
2024-03-06T07:08:04.977Z,27.37
2024-03-06T07:08:35.083Z,27.39
2024-03-06T07:09:05.022Z,27.40
2024-03-06T07:09:35.033Z,27.43
2024-03-06T07:10:05.039Z,27.43
2024-03-06T07:10:35.029Z,27.43
2024-03-06T07:11:05.116Z,27.44
2024-03-06T07:11:35.147Z,27.46
2024-03-06T07:12:05.175Z,27.47
2024-03-06T07:12:35.212Z,27.46
2024-03-06T07:13:06.530Z,27.46
2024-03-06T07:13:35.230Z,27.46
2024-03-06T07:14:05.234Z,27.44
2024-03-06T07:14:35.296Z,27.46
2024-03-06T07:15:05.245Z,27.46
2024-03-06T07:15:35.395Z,27.49
2024-03-06T07:16:05.388Z,27.49
2024-03-06T07:17:05.521Z,27.44
2024-03-06T07:17:35.617Z,27.46
2024-03-06T07:18:05.725Z,27.49
2024-03-06T07:18:35.822Z,27.51
2024-03-06T07:19:05.817Z,27.49
2024-03-06T07:19:35.848Z,27.53
2024-03-06T07:20:05.841Z,27.53
2024-03-06T07:20:36.031Z,27.53
2024-03-06T07:21:06.064Z,27.51
2024-03-06T07:21:36.062Z,27.54
2024-03-06T07:22:06.183Z,27.54
2024-03-06T07:22:36.187Z,27.54
2024-03-06T07:23:06.328Z,27.56
2024-03-06T07:23:36.392Z,27.53
2024-03-06T07:24:06.475Z,27.53
2024-03-06T07:24:38.942Z,27.56
2024-03-06T07:25:06.463Z,27.54
2024-03-06T07:25:36.489Z,27.56
2024-03-06T07:26:06.499Z,27.56
2024-03-06T07:26:36.798Z,27.56
2024-03-06T07:27:06.540Z,27.56
2024-03-06T07:27:36.529Z,27.54
2024-03-06T07:28:36.603Z,27.51
2024-03-06T07:29:06.749Z,27.53
2024-03-06T07:29:36.850Z,27.50